createdAt,value
2023-01-20T00:02:30.415Z,0.07
2023-01-20T00:05:03.123Z,0.05
2023-01-20T00:07:36.271Z,0.06
2023-01-20T00:10:12.976Z,0.03
2023-01-20T00:12:45.633Z,-0.03
2023-01-20T00:15:19.053Z,-0.06
2023-01-20T00:17:52.438Z,-0.06
2023-01-20T00:20:25.203Z,0.00
2023-01-20T00:22:57.882Z,0.03
2023-01-20T00:25:30.981Z,0.06
2023-01-20T00:28:03.679Z,0.12
2023-01-20T00:30:36.446Z,0.19
2023-01-20T00:33:09.585Z,0.24
2023-01-20T00:35:42.943Z,0.24
2023-01-20T00:38:17.799Z,0.26
2023-01-20T00:40:57.217Z,0.30
2023-01-20T00:43:30.028Z,0.36
2023-01-20T00:46:04.116Z,0.35
2023-01-20T00:48:37.440Z,0.38
2023-01-20T00:51:12.134Z,0.38
2023-01-20T00:53:44.893Z,0.41
2023-01-20T00:56:17.699Z,0.42
2023-01-20T00:58:51.149Z,0.43
2023-01-20T01:01:24.422Z,0.42
2023-01-20T01:03:57.312Z,0.45
2023-01-20T01:06:30.388Z,0.48
2023-01-20T01:09:03.773Z,0.47
2023-01-20T01:11:36.425Z,0.47
2023-01-20T01:14:09.040Z,0.48
2023-01-20T01:16:41.835Z,0.43
2023-01-20T01:19:15.954Z,0.39
2023-01-20T01:21:48.734Z,0.38
2023-01-20T01:24:21.560Z,0.38
2023-01-20T01:26:55.929Z,0.37
2023-01-20T01:29:28.850Z,0.41
2023-01-20T01:32:01.466Z,0.41
2023-01-20T01:34:34.254Z,0.39
2023-01-20T01:37:06.914Z,0.42
2023-01-20T01:39:39.662Z,0.39
2023-01-20T01:42:15.587Z,0.33
2023-01-20T01:45:30.624Z,0.27
2023-01-20T01:48:08.257Z,0.11
2023-01-20T01:50:47.023Z,0.08
2023-01-20T01:53:21.354Z,0.07
2023-01-20T01:55:57.133Z,0.11
2023-01-20T01:58:32.204Z,0.06
2023-01-20T02:01:05.081Z,-0.00
2023-01-20T02:03:44.568Z,0.05
2023-01-20T02:06:19.856Z,0.03
2023-01-20T02:08:53.652Z,0.00
2023-01-20T02:11:27.072Z,-0.06
2023-01-20T02:14:01.183Z,-0.06
2023-01-20T02:16:46.154Z,0.02
2023-01-20T02:20:06.670Z,-0.03
2023-01-20T02:22:50.089Z,-0.05
2023-01-20T02:25:41.420Z,-0.02
2023-01-20T02:28:46.429Z,0.05
2023-01-20T02:32:01.397Z,0.06
2023-01-20T02:34:38.911Z,0.04
2023-01-20T02:37:17.155Z,0.06
2023-01-20T02:40:02.039Z,0.08
2023-01-20T02:42:43.631Z,0.06
2023-01-20T02:45:23.713Z,0.10
2023-01-20T02:48:04.161Z,0.14
2023-01-20T02:50:47.173Z,0.17
2023-01-20T02:53:23.110Z,0.17
2023-01-20T02:55:58.429Z,0.19
2023-01-20T02:58:38.275Z,0.21
2023-01-20T03:01:17.283Z,0.27
2023-01-20T03:03:53.988Z,0.26
2023-01-20T03:06:32.278Z,0.24
2023-01-20T03:09:08.491Z,0.29
2023-01-20T03:11:47.091Z,0.34
2023-01-20T03:14:20.434Z,0.35
2023-01-20T03:16:53.672Z,0.36
2023-01-20T03:19:26.478Z,0.34
2023-01-20T03:21:59.845Z,0.27
2023-01-20T03:24:34.843Z,0.28
2023-01-20T03:27:09.070Z,0.31
2023-01-20T03:29:42.126Z,0.30
2023-01-20T03:32:16.485Z,0.31
2023-01-20T03:34:50.441Z,0.34
2023-01-20T03:37:23.462Z,0.37
2023-01-20T03:39:58.177Z,0.38
2023-01-20T03:42:35.749Z,0.38
2023-01-20T03:45:18.252Z,0.26
2023-01-20T03:47:58.725Z,0.15
2023-01-20T03:50:39.018Z,0.03
2023-01-20T03:53:20.091Z,-0.05
2023-01-20T03:56:00.199Z,-0.04
2023-01-20T03:58:39.093Z,-0.01
2023-01-20T04:01:18.638Z,-0.04
2023-01-20T04:03:54.981Z,-0.09
2023-01-20T04:06:31.391Z,-0.09
2023-01-20T04:09:06.990Z,-0.06
2023-01-20T04:11:40.561Z,-0.03
2023-01-20T04:14:13.311Z,0.03
2023-01-20T04:16:53.604Z,0.09
2023-01-20T04:19:28.379Z,0.09
2023-01-20T04:22:07.141Z,0.06
2023-01-20T04:24:44.310Z,0.04
2023-01-20T04:27:17.008Z,-0.05
2023-01-20T04:29:50.269Z,-0.06
2023-01-20T04:32:23.392Z,-0.04
2023-01-20T04:34:57.239Z,-0.05
2023-01-20T04:37:30.963Z,-0.06
2023-01-20T04:40:03.620Z,-0.12
2023-01-20T04:42:36.736Z,-0.11
2023-01-20T04:45:10.969Z,-0.04
2023-01-20T04:47:43.597Z,-0.04
2023-01-20T04:50:17.176Z,-0.00
2023-01-20T04:52:50.871Z,0.04
2023-01-20T04:55:26.493Z,0.05
2023-01-20T04:57:59.910Z,0.04
2023-01-20T05:00:33.302Z,0.08
2023-01-20T05:03:06.303Z,0.11
2023-01-20T05:05:39.430Z,0.11
2023-01-20T05:08:12.674Z,0.12
2023-01-20T05:10:45.452Z,0.17
2023-01-20T05:13:18.691Z,0.17
2023-01-20T05:15:51.519Z,0.12
2023-01-20T05:18:24.396Z,0.09
2023-01-20T05:20:58.134Z,0.09
2023-01-20T05:23:30.913Z,0.11
2023-01-20T05:26:04.403Z,0.13
2023-01-20T05:28:37.519Z,0.10
2023-01-20T05:31:10.977Z,0.12
2023-01-20T05:33:44.285Z,0.15
2023-01-20T05:36:16.916Z,0.19
2023-01-20T05:38:50.039Z,0.18
2023-01-20T05:41:23.472Z,0.21
2023-01-20T05:43:58.071Z,0.22
2023-01-20T05:46:31.777Z,0.21
2023-01-20T05:49:04.711Z,0.21
2023-01-20T05:51:37.527Z,0.23
2023-01-20T05:54:10.448Z,0.23
2023-01-20T05:56:43.037Z,0.20
2023-01-20T05:59:15.910Z,0.17
2023-01-20T06:01:48.634Z,0.17
2023-01-20T06:04:23.685Z,0.18
2023-01-20T06:06:56.308Z,0.21
2023-01-20T06:09:29.411Z,0.20
2023-01-20T06:12:02.490Z,0.21
2023-01-20T06:14:35.315Z,0.24
2023-01-20T06:17:08.036Z,0.20
2023-01-20T06:19:41.893Z,0.23
2023-01-20T06:22:19.918Z,0.23
2023-01-20T06:24:52.644Z,0.21
2023-01-20T06:27:25.287Z,0.22
2023-01-20T06:29:58.363Z,0.24
2023-01-20T06:32:31.678Z,0.26
2023-01-20T06:35:05.189Z,0.23
2023-01-20T06:37:38.939Z,0.15
2023-01-20T06:40:15.177Z,0.10
2023-01-20T06:42:47.818Z,0.09
2023-01-20T06:45:21.827Z,0.07
2023-01-20T06:47:55.112Z,0.01
2023-01-20T06:50:28.047Z,0.03
2023-01-20T06:53:01.420Z,0.02
2023-01-20T06:55:34.295Z,-0.04
2023-01-20T06:58:07.857Z,-0.13
2023-01-20T07:00:41.048Z,-0.16
2023-01-20T07:03:14.354Z,-0.15
2023-01-20T07:05:53.254Z,-0.14
2023-01-20T07:08:26.215Z,-0.11
2023-01-20T07:11:00.618Z,-0.09
2023-01-20T07:13:33.378Z,-0.04
2023-01-20T07:16:08.910Z,-0.04
2023-01-20T07:18:43.915Z,-0.09
2023-01-20T07:21:19.443Z,-0.04
2023-01-20T07:23:54.473Z,-0.01
2023-01-20T07:26:28.427Z,-0.03
2023-01-20T07:29:02.663Z,-0.06
2023-01-20T07:31:36.440Z,-0.04
2023-01-20T07:34:10.370Z,-0.04
2023-01-20T07:36:43.769Z,-0.02
2023-01-20T07:39:20.433Z,-0.05
2023-01-20T07:41:53.994Z,-0.03
2023-01-20T07:44:27.161Z,-0.01
2023-01-20T07:47:00.369Z,-0.05
2023-01-20T07:49:33.988Z,-0.03
2023-01-20T07:52:07.793Z,0.03
2023-01-20T07:54:41.269Z,0.01
2023-01-20T07:57:15.683Z,-0.02
2023-01-20T07:59:49.195Z,0.01
2023-01-20T08:02:22.839Z,0.05
2023-01-20T08:04:55.816Z,0.10
2023-01-20T08:07:29.999Z,0.15
2023-01-20T08:10:02.997Z,0.20
2023-01-20T08:12:35.642Z,0.16
2023-01-20T08:15:11.541Z,0.16
2023-01-20T08:17:44.620Z,0.20
2023-01-20T08:20:19.657Z,0.26
2023-01-20T08:22:53.887Z,0.32
2023-01-20T08:25:27.966Z,0.33
2023-01-20T08:28:01.510Z,0.32
2023-01-20T08:30:34.255Z,0.32
2023-01-20T08:33:07.721Z,0.32
2023-01-20T08:35:40.950Z,0.31
2023-01-20T08:38:14.397Z,0.33
2023-01-20T08:40:48.019Z,0.37
2023-01-20T08:43:22.213Z,0.39
2023-01-20T08:46:03.246Z,0.38
2023-01-20T08:48:37.108Z,0.40
2023-01-20T08:51:12.178Z,0.39
2023-01-20T08:53:45.877Z,0.44
2023-01-20T08:56:20.441Z,0.52
2023-01-20T08:58:54.097Z,0.57
2023-01-20T09:01:30.147Z,0.62
2023-01-20T09:04:06.178Z,0.52
2023-01-20T09:06:45.367Z,0.47
2023-01-20T09:09:20.487Z,0.42
2023-01-20T09:11:53.940Z,0.43
2023-01-20T09:14:27.907Z,0.45
2023-01-20T09:17:02.840Z,0.52
2023-01-20T09:19:36.875Z,0.60
2023-01-20T09:22:09.544Z,0.68
2023-01-20T09:24:42.615Z,0.76
2023-01-20T09:27:15.813Z,0.79
2023-01-20T09:29:49.302Z,0.84
2023-01-20T09:32:22.478Z,0.92
2023-01-20T09:34:57.114Z,0.93
2023-01-20T09:37:47.623Z,0.93
2023-01-20T09:40:41.634Z,0.89
2023-01-20T09:43:46.064Z,0.87
2023-01-20T09:46:25.797Z,0.88
2023-01-20T09:49:23.201Z,0.88
2023-01-20T09:52:20.950Z,0.88
2023-01-20T09:54:58.027Z,0.91
2023-01-20T09:57:39.920Z,0.91
2023-01-20T10:00:22.680Z,0.86
2023-01-20T10:03:05.929Z,0.87
2023-01-20T10:05:42.045Z,0.90
2023-01-20T10:08:22.282Z,0.91
2023-01-20T10:11:03.433Z,0.95
2023-01-20T10:13:47.504Z,0.93
2023-01-20T10:16:29.704Z,0.88
2023-01-20T10:19:07.978Z,0.82
2023-01-20T10:21:46.112Z,0.79
2023-01-20T10:24:25.524Z,0.77
2023-01-20T10:27:02.502Z,0.76
2023-01-20T10:29:38.896Z,0.82
2023-01-20T10:32:23.093Z,0.78
2023-01-20T10:34:59.362Z,0.80
2023-01-20T10:37:33.815Z,0.78
2023-01-20T10:40:21.414Z,0.74
2023-01-20T10:42:58.324Z,0.77
2023-01-20T10:45:41.231Z,0.88
2023-01-20T10:48:31.206Z,1.01
2023-01-20T10:51:13.860Z,1.05
2023-01-20T10:56:53.725Z,1.05
2023-01-20T10:59:32.784Z,0.88
2023-01-20T11:02:18.217Z,0.89
2023-01-20T11:04:56.839Z,0.92
2023-01-20T11:07:31.027Z,0.91
2023-01-20T11:10:11.201Z,0.98
2023-01-20T11:12:47.591Z,0.98
2023-01-20T11:15:23.826Z,0.87
2023-01-20T11:18:28.281Z,0.82
2023-01-20T11:21:05.071Z,0.75
2023-01-20T11:23:41.624Z,0.82
2023-01-20T11:26:22.623Z,0.83
2023-01-20T11:28:58.431Z,0.85
2023-01-20T11:31:43.585Z,0.91
2023-01-20T11:34:27.919Z,0.99
2023-01-20T11:37:20.715Z,1.02
2023-01-20T11:40:05.266Z,0.96
2023-01-20T11:42:47.320Z,1.01
2023-01-20T11:45:34.826Z,1.03
2023-01-20T11:48:21.744Z,1.03
2023-01-20T11:51:02.810Z,0.96
2023-01-20T11:53:37.972Z,1.00
2023-01-20T11:56:24.020Z,1.00
2023-01-20T11:59:02.022Z,1.03
2023-01-20T12:01:53.712Z,1.03
2023-01-20T12:04:46.122Z,1.01
2023-01-20T12:07:24.028Z,0.98
2023-01-20T12:10:04.576Z,0.92
2023-01-20T12:12:41.684Z,0.94
2023-01-20T12:15:20.946Z,0.99
2023-01-20T12:18:04.551Z,1.03
2023-01-20T12:20:54.581Z,1.05
2023-01-20T12:23:46.107Z,1.05
2023-01-20T12:26:22.529Z,0.99
2023-01-20T12:29:03.323Z,0.91
2023-01-20T12:31:36.907Z,0.93
2023-01-20T12:34:15.640Z,0.85
2023-01-20T12:37:00.893Z,0.84
2023-01-20T12:39:50.849Z,0.89
2023-01-20T12:43:00.783Z,0.91
2023-01-20T12:45:47.141Z,0.86
2023-01-20T12:48:36.999Z,0.81
2023-01-20T12:51:24.849Z,0.69
2023-01-20T12:54:14.497Z,0.70
2023-01-20T12:56:58.413Z,0.70
2023-01-20T12:59:45.534Z,0.61
2023-01-20T13:02:58.770Z,0.53
2023-01-20T13:06:05.748Z,0.51
2023-01-20T13:08:48.585Z,0.48
2023-01-20T13:11:33.768Z,0.52
2023-01-20T13:14:15.772Z,0.61
2023-01-20T13:16:55.250Z,0.61
2023-01-20T13:19:33.902Z,0.59
2023-01-20T13:22:15.052Z,0.52
2023-01-20T13:24:50.128Z,0.45
2023-01-20T13:27:29.377Z,0.48
2023-01-20T13:30:04.608Z,0.53
2023-01-20T13:32:45.289Z,0.51
2023-01-20T13:35:44.121Z,0.50
2023-01-20T13:38:25.629Z,0.53
2023-01-20T13:41:03.889Z,0.51
2023-01-20T13:43:47.683Z,0.50
2023-01-20T13:46:48.918Z,0.45
2023-01-20T13:49:55.592Z,0.38
2023-01-20T13:53:06.835Z,0.30
2023-01-20T13:56:00.611Z,0.34
2023-01-20T13:58:35.287Z,0.33
2023-01-20T14:01:15.197Z,0.32
2023-01-20T14:04:05.267Z,0.30
2023-01-20T14:06:46.508Z,0.23
2023-01-20T14:09:24.956Z,0.23
2023-01-20T14:11:59.030Z,0.25
2023-01-20T14:14:32.792Z,0.23
2023-01-20T14:17:17.391Z,0.19
2023-01-20T14:19:53.810Z,0.16
2023-01-20T14:22:30.005Z,0.17
2023-01-20T14:25:03.663Z,0.24
2023-01-20T14:27:42.072Z,0.27
2023-01-20T14:30:25.010Z,0.24
2023-01-20T14:32:57.904Z,0.16
2023-01-20T14:35:35.312Z,0.11
2023-01-20T14:38:19.727Z,0.10
2023-01-20T14:40:53.090Z,0.08
2023-01-20T14:43:30.895Z,0.05
2023-01-20T14:46:04.155Z,0.01
2023-01-20T14:48:37.991Z,-0.04
2023-01-20T14:51:13.143Z,-0.04
2023-01-20T14:53:48.719Z,-0.00
2023-01-20T14:56:23.998Z,-0.04
2023-01-20T14:58:58.929Z,-0.06
2023-01-20T15:01:32.594Z,-0.11
2023-01-20T15:04:06.501Z,-0.12
2023-01-20T15:06:39.781Z,-0.14
2023-01-20T15:09:29.029Z,-0.17
2023-01-20T15:12:39.559Z,-0.27
2023-01-20T15:15:21.921Z,-0.30
2023-01-20T15:18:22.048Z,-0.24
2023-01-20T15:21:15.694Z,-0.28
2023-01-20T15:23:52.636Z,-0.26
2023-01-20T15:26:29.699Z,-0.22
2023-01-20T15:29:02.501Z,-0.19
2023-01-20T15:31:35.784Z,-0.12
2023-01-20T15:34:10.789Z,-0.12
2023-01-20T15:36:44.939Z,-0.16
2023-01-20T15:39:19.885Z,-0.16
2023-01-20T15:41:55.237Z,-0.17
2023-01-20T15:44:32.019Z,-0.19
2023-01-20T15:47:07.338Z,-0.18
2023-01-20T15:49:40.017Z,-0.20
2023-01-20T15:52:14.748Z,-0.24
2023-01-20T15:54:47.596Z,-0.24
2023-01-20T15:57:22.001Z,-0.24
2023-01-20T15:59:54.920Z,-0.18
2023-01-20T16:02:28.333Z,-0.13
2023-01-20T16:05:01.370Z,-0.14
2023-01-20T16:07:34.165Z,-0.09
2023-01-20T16:10:07.817Z,-0.08
2023-01-20T16:12:41.411Z,-0.07
2023-01-20T16:15:19.265Z,-0.04
2023-01-20T16:17:54.122Z,-0.01
2023-01-20T16:20:27.888Z,0.00
2023-01-20T16:23:01.050Z,0.06
2023-01-20T16:25:34.123Z,0.07
2023-01-20T16:28:14.944Z,0.06
2023-01-20T16:30:49.086Z,0.03
2023-01-20T16:33:25.354Z,-0.13
2023-01-20T16:35:59.496Z,-0.17
2023-01-20T16:38:33.216Z,-0.15
2023-01-20T16:41:15.184Z,-0.14
2023-01-20T16:43:49.925Z,-0.14
2023-01-20T16:46:24.781Z,-0.22
2023-01-20T16:49:02.195Z,-0.25
2023-01-20T16:51:36.274Z,-0.25
2023-01-20T16:54:11.525Z,-0.23
2023-01-20T16:56:45.314Z,-0.15
2023-01-20T16:59:19.641Z,-0.14
2023-01-20T17:01:52.604Z,-0.19
2023-01-20T17:04:26.527Z,-0.18
2023-01-20T17:06:59.211Z,-0.21
2023-01-20T17:09:32.267Z,-0.31
2023-01-20T17:12:05.777Z,-0.34
2023-01-20T17:14:38.719Z,-0.32
2023-01-20T17:17:12.755Z,-0.38
2023-01-20T17:19:45.450Z,-0.40
2023-01-20T17:22:19.472Z,-0.40
2023-01-20T17:24:53.151Z,-0.36
2023-01-20T17:27:25.820Z,-0.32
2023-01-20T17:29:58.722Z,-0.31
2023-01-20T17:32:31.854Z,-0.27
2023-01-20T17:35:05.343Z,-0.27
2023-01-20T17:37:38.378Z,-0.25
2023-01-20T17:40:14.815Z,-0.22
2023-01-20T17:42:48.671Z,-0.20
2023-01-20T17:45:21.932Z,-0.18
2023-01-20T17:47:55.717Z,-0.23
2023-01-20T17:50:30.077Z,-0.31
2023-01-20T17:53:02.909Z,-0.30
2023-01-20T17:55:35.831Z,-0.24
2023-01-20T17:58:11.383Z,-0.19
2023-01-20T18:00:44.523Z,-0.13
2023-01-20T18:03:17.561Z,-0.11
2023-01-20T18:05:53.519Z,-0.08
2023-01-20T18:08:26.235Z,-0.04
2023-01-20T18:11:05.668Z,-0.06
2023-01-20T18:13:39.385Z,-0.10
2023-01-20T18:16:16.506Z,-0.08
2023-01-20T18:18:51.168Z,-0.04
2023-01-20T18:21:26.852Z,-0.00
2023-01-20T18:24:01.097Z,-0.03
2023-01-20T18:26:37.575Z,0.00
2023-01-20T18:29:14.122Z,-0.03
2023-01-20T18:31:47.374Z,-0.09
2023-01-20T18:34:22.164Z,-0.08
2023-01-20T18:36:55.247Z,-0.04
2023-01-20T18:39:30.740Z,-0.01
2023-01-20T18:42:04.204Z,-0.02
2023-01-20T18:44:37.824Z,-0.08
2023-01-20T18:47:10.787Z,-0.07
2023-01-20T18:49:43.940Z,-0.01
2023-01-20T18:52:18.974Z,-0.02
2023-01-20T18:54:52.094Z,-0.07
2023-01-20T18:57:26.111Z,-0.06
2023-01-20T18:59:59.706Z,0.00
2023-01-20T19:02:34.487Z,0.02
2023-01-20T19:05:09.820Z,-0.02
2023-01-20T19:07:42.482Z,-0.07
2023-01-20T19:10:16.330Z,-0.05
2023-01-20T19:12:49.169Z,-0.03
2023-01-20T19:15:22.345Z,-0.07
2023-01-20T19:17:56.284Z,-0.09
2023-01-20T19:20:29.905Z,-0.08
2023-01-20T19:23:03.963Z,-0.12
2023-01-20T19:25:36.582Z,-0.08
2023-01-20T19:28:11.102Z,-0.03
2023-01-20T19:30:43.893Z,-0.03
2023-01-20T19:33:18.155Z,-0.05
2023-01-20T19:35:50.947Z,-0.05
2023-01-20T19:38:24.965Z,-0.04
2023-01-20T19:41:04.896Z,-0.02
2023-01-20T19:43:39.886Z,-0.02
2023-01-20T19:46:14.767Z,0.00
2023-01-20T19:48:47.599Z,0.03
2023-01-20T19:51:21.523Z,0.05
2023-01-20T19:53:58.167Z,0.06
2023-01-20T19:56:32.514Z,0.08
2023-01-20T19:59:07.150Z,0.08
2023-01-20T20:01:41.075Z,0.13
2023-01-20T20:04:15.242Z,0.17
2023-01-20T20:06:50.401Z,0.20
2023-01-20T20:09:26.319Z,0.25
2023-01-20T20:12:05.277Z,0.26
2023-01-20T20:14:38.850Z,0.27
2023-01-20T20:17:11.932Z,0.28
2023-01-20T20:19:44.951Z,0.33
2023-01-20T20:22:17.568Z,0.34
2023-01-20T20:24:50.834Z,0.35
2023-01-20T20:27:23.530Z,0.30
2023-01-20T20:30:00.162Z,0.31
2023-01-20T20:32:33.052Z,0.37
2023-01-20T20:35:07.860Z,0.40
2023-01-20T20:37:41.614Z,0.40
2023-01-20T20:40:17.649Z,0.44
2023-01-20T20:42:51.394Z,0.47
2023-01-20T20:45:24.991Z,0.49
2023-01-20T20:47:58.466Z,0.49
2023-01-20T20:50:32.088Z,0.49
2023-01-20T20:53:04.687Z,0.48
2023-01-20T20:55:40.475Z,0.50
2023-01-20T20:58:14.312Z,0.51
2023-01-20T21:00:53.531Z,0.55
2023-01-20T21:03:26.265Z,0.53
2023-01-20T21:05:59.454Z,0.54
2023-01-20T21:08:33.682Z,0.56
2023-01-20T21:11:08.830Z,0.54
2023-01-20T21:13:42.104Z,0.53
2023-01-20T21:16:20.874Z,0.52
2023-01-20T21:18:56.358Z,0.53
2023-01-20T21:21:29.985Z,0.53
2023-01-20T21:24:02.810Z,0.53
2023-01-20T21:26:35.557Z,0.54
2023-01-20T21:29:08.442Z,0.55
2023-01-20T21:31:41.723Z,0.53
2023-01-20T21:34:16.412Z,0.51
2023-01-20T21:36:49.167Z,0.47
2023-01-20T21:39:21.976Z,0.48
2023-01-20T21:41:54.715Z,0.50
2023-01-20T21:44:32.463Z,0.50
2023-01-20T21:47:11.742Z,0.49
2023-01-20T21:50:00.988Z,0.49
2023-01-20T21:52:42.803Z,0.48
2023-01-20T21:55:19.325Z,0.48
2023-01-20T21:57:52.399Z,0.50
2023-01-20T22:00:26.434Z,0.53
2023-01-20T22:02:59.506Z,0.54
2023-01-20T22:05:32.390Z,0.50
2023-01-20T22:08:05.071Z,0.54
2023-01-20T22:10:38.510Z,0.55
2023-01-20T22:13:11.389Z,0.53
2023-01-20T22:15:44.076Z,0.51
2023-01-20T22:18:16.781Z,0.49
2023-01-20T22:20:49.470Z,0.52
2023-01-20T22:23:22.279Z,0.54
2023-01-20T22:25:58.030Z,0.54
2023-01-20T22:28:38.370Z,0.54
2023-01-20T22:31:13.217Z,0.55
2023-01-20T22:33:46.406Z,0.55
2023-01-20T22:36:19.616Z,0.55
2023-01-20T22:38:54.959Z,0.53
2023-01-20T22:41:28.713Z,0.53
2023-01-20T22:44:01.386Z,0.54
2023-01-20T22:46:34.153Z,0.54
2023-01-20T22:49:07.185Z,0.52
2023-01-20T22:51:40.884Z,0.53
2023-01-20T22:54:14.671Z,0.55
2023-01-20T22:56:47.862Z,0.55
2023-01-20T22:59:20.556Z,0.55
2023-01-20T23:01:53.227Z,0.55
2023-01-20T23:04:26.396Z,0.56
2023-01-20T23:06:59.476Z,0.56
2023-01-20T23:09:33.006Z,0.50
2023-01-20T23:12:06.277Z,0.53
2023-01-20T23:14:53.952Z,0.54
2023-01-20T23:17:27.128Z,0.50
2023-01-20T23:20:00.201Z,0.48
2023-01-20T23:22:33.572Z,0.50
2023-01-20T23:25:08.645Z,0.51
2023-01-20T23:27:41.915Z,0.53
2023-01-20T23:30:16.023Z,0.49
2023-01-20T23:32:49.855Z,0.48
2023-01-20T23:35:22.846Z,0.46
2023-01-20T23:37:55.956Z,0.45
2023-01-20T23:40:30.300Z,0.46
2023-01-20T23:43:04.147Z,0.45
2023-01-20T23:45:36.888Z,0.45
2023-01-20T23:48:10.792Z,0.43
2023-01-20T23:50:43.573Z,0.42
2023-01-20T23:53:17.027Z,0.40
2023-01-20T23:55:50.146Z,0.39
2023-01-20T23:58:22.934Z,0.44
